• Join FlightAware (Why Join?)
  • Login
  • US Flag 
07:25PM EST


 

Airport Tracker/Info


-or-


 

Live Flight TrackerFlight Track Log ✈ C-GSSA ✈ 29-Apr-2013 ✈ KCLT - KSUA

Flight Track Log - Related Links

Times and Time Zones

All times are in EDT time to prevent confusion due to time zone crossing. See the C-GSSA flight status page for this flight to view local times or setup timezone preferences in your user account.

Time Position Orientation Groundspeed Altitude Reporting Facility
EDT Latitude Longitude Course Direction KTS MPH feet Rate Location/Type
06:46PM 35.2050 -80.9225 89° East 117 135 1,200  Level Atlanta Center
06:48PM 35.2056 -80.8639 89° East 118 136 2,400 840 Climbing Atlanta Center
06:49PM 35.2044 -80.8208 92° East 121 139 3,400 840 Climbing Atlanta Center
06:50PM 35.1911 -80.7806 112° Southeast 126 145 4,400 720 Climbing Atlanta Center
06:51PM 35.1611 -80.7539 144° Southeast 128 147 5,000 540 Climbing Atlanta Center
06:52PM 35.1236 -80.7581 185° South 147 169 5,500 540 Climbing Atlanta Center
06:53PM 35.0903 -80.7617 185° South 135 155 6,100 660 Climbing Atlanta Center
06:54PM 35.0508 -80.7633 182° South 138 159 6,800 780 Climbing Atlanta Center
06:55PM 35.0092 -80.7650 182° South 141 162 7,700 840 Climbing Atlanta Center
06:56PM 34.9694 -80.7692 185° South 138 159 8,600 720 Climbing Atlanta Center
06:57PM 34.9342 -80.7706 182° South 142 163 9,200 720 Climbing Atlanta Center
06:58PM 34.8925 -80.7772 187° South 145 167 10,100 720 Climbing Atlanta Center
07:00PM 34.8119 -80.7864 185° South 163 188 11,600 720 Climbing Jacksonville Center
07:01PM 34.7700 -80.7772 170° South 155 178 12,300 660 Climbing Jacksonville Center
07:02PM 34.7281 -80.7681 170° South 155 178 13,000 720 Climbing Jacksonville Center
07:03PM 34.6844 -80.7742 187° South 155 178 13,800 720 Climbing Jacksonville Center
07:04PM 34.6428 -80.7828 190° South 160 184 14,500 660 Climbing Jacksonville Center
07:05PM 34.5969 -80.7864 184° South 160 184 15,200 660 Climbing Jacksonville Center
07:06PM 34.5492 -80.7953 189° South 160 184 15,900 600 Climbing Jacksonville Center
07:07PM 34.5014 -80.7989 184° South 160 184 16,500 660 Climbing Jacksonville Center
07:08PM 34.4556 -80.8025 184° South 160 184 17,300 660 Climbing Jacksonville Center
07:09PM 34.4075 -80.8111 188° South 165 190 17,900 600 Climbing Jacksonville Center
07:10PM 34.3617 -80.8147 184° South 171 197 18,600 660 Climbing Jacksonville Center
07:11PM 34.3161 -80.8211 187° South 171 197 19,300 600 Climbing Jacksonville Center
07:12PM 34.2742 -80.8194 178° South 171 197 19,900 600 Climbing Jacksonville Center
07:13PM 34.2264 -80.8256 186° South 171 197 20,600 660 Climbing Jacksonville Center
07:14PM 34.1806 -80.8317 186° South 165 190 21,300 600 Climbing Jacksonville Center
07:15PM 34.1347 -80.8403 189° South 165 190 21,900 540 Climbing Jacksonville Center
07:16PM 34.0889 -80.8414 181° South 165 190 22,400 480 Climbing Jacksonville Center
07:17PM 34.0453 -80.8475 187° South 165 190 22,900 480 Climbing Jacksonville Center
07:18PM 33.9972 -80.8511 184° South 165 190 23,400 480 Climbing Jacksonville Center
07:19PM 33.9536 -80.8547 184° South 165 190 23,900 300 Climbing Jacksonville Center
07:20PM 33.9056 -80.8633 188° South 165 190 24,000  Climbing Jacksonville Center
07:21PM 33.8600 -80.8792 196° South 170 196 24,000  Level Jacksonville Center
07:22PM 33.8208 -80.9078 211° Southwest 170 196 24,000  Level Jacksonville Center
07:23PM 33.7794 -80.9386 212° Southwest 175 201 24,000  Level Jacksonville Center
07:24PM 33.7361 -80.9669 209° Southwest 180 207 24,000  Level Jacksonville Center
07:25PM 33.6969 -81.0003 215° Southwest 180 207 24,000  Level Jacksonville Center
07:26PM 33.6536 -81.0286 209° Southwest 180 207 24,000  Level Jacksonville Center
07:27PM 33.6122 -81.0594 212° Southwest 180 207 24,000  Level Jacksonville Center
07:28PM 33.5731 -81.0878 211° Southwest 180 207 24,000  Level Jacksonville Center
07:29PM 33.5317 -81.1161 210° Southwest 180 207 24,000  Level Jacksonville Center
07:30PM 33.4925 -81.1467 213° Southwest 175 201 24,000  Level Jacksonville Center
07:31PM 33.4511 -81.1750 210° Southwest 175 201 24,000  Level Jacksonville Center
07:32PM 33.4078 -81.2031 208° Southwest 175 201 24,000  Level Jacksonville Center
07:33PM 33.3664 -81.2361 214° Southwest 180 207 24,000  Level Jacksonville Center
07:34PM 33.3231 -81.2644 209° Southwest 180 207 24,000  Level Jacksonville Center
07:35PM 33.2817 -81.2975 214° Southwest 180 207 24,000  Level Jacksonville Center
07:36PM 33.2381 -81.3281 210° Southwest 180 207 24,000  Level Jacksonville Center
07:37PM 33.1967 -81.3561 210° Southwest 180 207 24,000  Level Jacksonville Center
07:38PM 33.1553 -81.3839 209° Southwest 180 207 24,000  Level Jacksonville Center
07:39PM 33.1119 -81.4144 211° Southwest 180 207 24,000  Level Jacksonville Center
07:40PM 33.0706 -81.4425 210° Southwest 180 207 24,000  Level Jacksonville Center
07:41PM 33.0311 -81.4728 213° Southwest 174 200 24,000  Level Jacksonville Center
07:42PM 32.9919 -81.5008 211° Southwest 174 200 24,000  Level Jacksonville Center
07:43PM 32.9483 -81.5286 208° Southwest 174 200 24,000  Level Jacksonville Center
07:44PM 32.9089 -81.5589 213° Southwest 174 200 24,000  Level Jacksonville Center
07:45PM 32.8697 -81.5867 211° Southwest 174 200 24,000  Level Jacksonville Center
07:46PM 32.8281 -81.6169 211° Southwest 174 200 24,000  Level Jacksonville Center
07:47PM 32.7867 -81.6447 209° Southwest 174 200 24,000  Level Jacksonville Center
07:48PM 32.7472 -81.6750 213° Southwest 179 206 24,000  Level Jacksonville Center
07:49PM 32.7078 -81.6978 206° Southwest 179 206 24,000  Level Jacksonville Center
07:50PM 32.6644 -81.7328 214° Southwest 184 212 24,000  Level Jacksonville Center
07:51PM 32.6228 -81.7606 209° Southwest 184 212 24,000  Level Jacksonville Center
07:52PM 32.5856 -81.7881 212° Southwest 184 212 24,000  Level Jacksonville Center
07:53PM 32.5378 -81.8206 210° Southwest 184 212 24,000  Level Jacksonville Center
07:54PM 32.4983 -81.8481 210° Southwest 179 206 24,000  Level Jacksonville Center
07:55PM 32.4528 -81.8806 211° Southwest 184 212 24,000  Level Jacksonville Center
07:56PM 32.4069 -81.9108 209° Southwest 184 212 24,000  Level Jacksonville Center
07:57PM 32.3633 -81.9308 201° Southwest 184 212 24,000  Level Jacksonville Center
07:58PM 32.3069 -81.9486 195° South 184 212 24,000  Level Jacksonville Center
07:59PM 32.2633 -81.9639 197° South 184 212 24,000  Level Jacksonville Center
08:00PM 32.2092 -81.9817 196° South 184 212 24,000  Level Jacksonville Center
08:01PM 32.1592 -81.9969 195° South 184 212 24,000  Level Jacksonville Center
08:02PM 32.1156 -82.0144 199° South 184 212 24,000  Level Jacksonville Center
08:03PM 32.0592 -82.0322 195° South 184 212 24,000  Level Jacksonville Center
08:04PM 32.0114 -82.0472 195° South 184 212 24,000  Level Jacksonville Center
08:05PM 31.9675 -82.0625 196° South 184 212 24,000  Level Jacksonville Center
08:06PM 31.9111 -82.0703 187° South 184 212 24,000  Level Jacksonville Center
08:07PM 31.8633 -82.0756 185° South 184 212 24,000  Level Jacksonville Center
08:08PM 31.8050 -82.0858 189° South 197 227 24,000  Level Jacksonville Center
08:09PM 31.7528 -82.0936 187° South 202 232 24,000  Level Jacksonville Center
08:10PM 31.7025 -82.0989 185° South 202 232 24,000  Level Jacksonville Center
08:11PM 31.6442 -82.1092 189° South 197 227 24,000  Level Jacksonville Center
08:12PM 31.5964 -82.1194 190° South 197 227 24,000  Level Jacksonville Center
08:13PM 31.5419 -82.1247 185° South 197 227 24,000  Level Jacksonville Center
08:14PM 31.4897 -82.1300 185° South 197 227 24,000  Level Jacksonville Center
08:15PM 31.4356 -82.1378 187° South 197 227 24,000  Level Jacksonville Center
08:16PM 31.3814 -82.1478 189° South 197 227 24,000  Level Jacksonville Center
08:17PM 31.3272 -82.1531 185° South 197 227 24,000  Level Jacksonville Center
08:18PM 31.2750 -82.1608 187° South 197 227 24,000  Level Jacksonville Center
08:19PM 31.2208 -82.1661 185° South 197 227 24,000  Level Jacksonville Center
08:20PM 31.1664 -82.1764 189° South 197 227 24,000  Level Jacksonville Center
08:21PM 31.1103 -82.1817 185° South 197 227 24,000  Level Jacksonville Center
08:22PM 31.0539 -82.1917 189° South 202 232 24,000  Level Jacksonville Center
08:23PM 30.9994 -82.1969 185° South 202 232 24,000  Level Jacksonville Center
08:24PM 30.9453 -82.2047 187° South 202 232 24,000  Level Jacksonville Center
08:25PM 30.8869 -82.2125 187° South 202 232 24,000  Level Jacksonville Center
08:26PM 30.8306 -82.2175 184° South 202 232 24,000  Level Jacksonville Center
08:27PM 30.7764 -82.2278 189° South 202 232 24,000  Level Jacksonville Center
08:28PM 30.7200 -82.2353 187° South 202 232 24,000  Level Jacksonville Center
08:29PM 30.6636 -82.2406 185° South 202 232 24,000  Level Jacksonville Center
08:30PM 30.6094 -82.2481 187° South 202 232 24,000  Level Jacksonville Center
08:31PM 30.5489 -82.2533 184° South 197 227 24,000  Level Jacksonville Center
08:32PM 30.4947 -82.2586 185° South 197 227 24,000  Level Jacksonville Center
08:33PM 30.4403 -82.2686 189° South 197 227 24,000  Level Jacksonville Center
08:34PM 30.3861 -82.2761 187° South 203 234 24,000  Level Jacksonville Center
08:35PM 30.3319 -82.2814 185° South 198 228 24,000  Level Jacksonville Center
08:36PM 30.2756 -82.2914 189° South 198 228 24,000  Level Jacksonville Center
08:37PM 30.2192 -82.2964 184° South 198 228 24,000  Level Jacksonville Center
08:38PM 30.1650 -82.3039 187° South 203 234 24,000  Level Jacksonville Center
08:39PM 30.1064 -82.3117 187° South 203 234 24,000  Level Jacksonville Center
08:40PM 30.0503 -82.3189 186° South 203 234 24,000  Level Jacksonville Center
08:41PM 29.9939 -82.3314 191° South 203 234 24,000  Level Jacksonville Center
08:42PM 29.9375 -82.3389 187° South 203 234 24,000  Level Jacksonville Center
08:43PM 29.8833 -82.3417 183° South 198 228 24,000  Level Jacksonville Center
08:44PM 29.8269 -82.3492 187° South 198 228 24,000  Level Jacksonville Center
08:45PM 29.7728 -82.3589 189° South 198 228 24,000  Level Jacksonville Center
08:46PM 29.7164 -82.3642 185° South 198 228 24,000  Level Jacksonville Center
08:47PM 29.6622 -82.3717 187° South 198 228 24,000  Level Jacksonville Center
08:48PM 29.6058 -82.3789 186° South 198 228 24,000  Level Jacksonville Center
08:49PM 29.5494 -82.3864 187° South 198 228 24,000  Level Jacksonville Center
08:50PM 29.4953 -82.3939 187° South 198 228 24,000 -180 Level Jacksonville Center
08:51PM 29.4367 -82.4014 186° South 198 228 23,700 -240 Descending Jacksonville Center
08:52PM 29.3783 -82.4089 186° South 203 234 23,600 -360 Descending Jacksonville Center
08:53PM 29.3200 -82.4186 188° South 213 245 23,000 -300 Descending Jacksonville Center
08:54PM 29.2594 -82.4261 186° South 219 252 23,000  Level Jacksonville Center
08:55PM 29.2011 -82.4333 186° South 219 252 23,000  Level Jacksonville Center
08:56PM 29.1425 -82.4386 184° South 219 252 23,000  Level Jacksonville Center
08:57PM 29.0842 -82.4458 186° South 219 252 23,000  Level Jacksonville Center
08:58PM 29.0256 -82.4389 174° South 214 246 23,000  Level Jacksonville Center
08:59PM 28.9650 -82.4297 172° South 214 246 23,000  Level Jacksonville Center
09:00PM 28.9086 -82.4206 172° South 214 246 23,000  Level Jacksonville Center
09:01PM 28.8481 -82.4139 174° South 214 246 23,000  Level Jacksonville Center
09:02PM 28.7897 -82.4044 172° South 219 252 23,000  Level Jacksonville Center
09:03PM 28.7311 -82.3953 172° South 219 252 23,000  Level Jacksonville Center
09:04PM 28.6789 -82.3933 178° South 219 252 23,000  Level Jacksonville Center
09:05PM 28.6183 -82.3864 174° South 219 252 23,000  Level Jacksonville Center
09:06PM 28.5600 -82.3750 170° South 219 252 23,000  Level Jacksonville Center
09:07PM 28.4994 -82.3681 174° South 219 252 23,000  Level Jacksonville Center
09:08PM 28.4411 -82.3614 174° South 219 252 23,000  Level Jacksonville Center
09:09PM 28.3806 -82.3547 174° South 219 252 23,000  Level Jacksonville Center
09:11PM 28.2483 -82.3381 174° South 218 251 23,000  Level Miami Center
09:12PM 28.1858 -82.3303 174° South 218 251 23,000  Level Miami Center
09:13PM 28.1281 -82.3203 171° South 213 245 23,000  Level Miami Center
09:14PM 28.0675 -82.3150 176° South 218 251 23,000  Level Miami Center
09:15PM 28.0078 -82.2981 166° South 218 251 23,000  Level Miami Center
09:16PM 27.9500 -82.2789 164° South 218 251 23,000  Level Miami Center
09:17PM 27.8925 -82.2597 164° South 218 251 23,000  Level Miami Center
09:18PM 27.8306 -82.2403 164° South 218 251 23,000  Level Miami Center
09:19PM 27.7750 -82.2214 163° South 218 251 23,000  Level Miami Center
09:20PM 27.7153 -82.1997 162° South 223 257 23,000  Level Miami Center
09:21PM 27.6617 -82.1808 163° South 223 257 23,000  Level Miami Center
09:22PM 27.6019 -82.1594 162° South 223 257 23,000  Level Miami Center
09:23PM 27.5381 -82.1375 163° South 223 257 23,000  Level Miami Center
09:24PM 27.4803 -82.1186 164° South 223 257 23,000  Level Miami Center
09:25PM 27.4228 -82.0972 162° South 223 257 23,000  Level Miami Center
09:26PM 27.3689 -82.0831 167° South 219 252 23,000  Level Miami Center
09:27PM 27.3069 -82.0617 163° South 219 252 23,000  Level Miami Center
09:28PM 27.2472 -82.0403 162° South 219 252 23,000  Level Miami Center
09:29PM 27.1917 -82.0214 163° South 219 252 23,000  Level Miami Center
09:30PM 27.1400 -82.0050 164° South 219 252 23,000  Level Miami Center
09:31PM 27.0803 -81.9861 164° South 219 252 23,000  Level Miami Center
09:32PM 27.0164 -81.9622 162° South 219 252 23,000 -240 Level Miami Center
09:33PM 26.9586 -81.9411 162° South 219 252 22,600 -660 Descending Miami Center
09:34PM 26.8947 -81.9197 163° South 232 267 21,700 -780 Descending Miami Center
09:35PM 26.8444 -81.8617 134° Southeast 237 273 21,100 -600 Descending Miami Center
09:36PM 26.7942 -81.8083 137° Southeast 250 288 20,500 -660 Descending Miami Center
09:37PM 26.7458 -81.7553 136° Southeast 250 288 19,800 -660 Descending Miami Center
09:38PM 26.6975 -81.6997 134° Southeast 250 288 19,200 -420 Descending Miami Center
09:39PM 26.6892 -81.6367 98° East 220 253 19,000 -120 Descending Miami Center
09:40PM 26.7039 -81.5675 77° East 213 245 19,000  Level Miami Center
09:41PM 26.7211 -81.4939 75° East 213 245 19,000  Level Miami Center
09:42PM 26.7356 -81.4269 76° East 220 253 19,000 -180 Level Miami Center
09:43PM 26.7544 -81.3581 73° East 220 253 18,700 -360 Descending Miami Center
09:44PM 26.7669 -81.2911 78° East 220 253 18,300 -480 Descending Miami Center
09:45PM 26.7836 -81.2264 74° East 228 262 17,800 300 Descending Miami Center
09:46PM 26.8025 -81.1481 75° East 228 262 19,000 600 Climbing Miami Center
09:47PM 26.8172 -81.0767 77° East 233 268 19,000  Level Miami Center
09:48PM 26.8233 -81.0117 84° East 233 268 19,000  Level Miami Center
09:49PM 26.8292 -80.9467 84° East 226 260 19,000  Level Miami Center
09:50PM 26.8375 -80.8772 82° East 215 247 19,000  Level Miami Center
09:51PM 26.8244 -80.8183 104° East 195 224 19,000  Level Miami Center
09:52PM 26.8342 -80.7700 77° East 171 197 19,000  Level Miami Center
09:53PM 26.8603 -80.7267 56° Northeast 170 196 19,000  Level Miami Center
09:54PM 26.8908 -80.6786 55° Northeast 187 215 19,000  Level Miami Center
09:55PM 26.9278 -80.6239 53° Northeast 196 226 19,000  Level Miami Center
09:56PM 26.9583 -80.5736 56° Northeast 191 220 19,000  Level Miami Center
09:58PM 27.0192 -80.4800 54° Northeast 191 220 19,000  Level Miami Center
09:59PM 27.0539 -80.4275 53° Northeast 191 220 19,000  Level Miami Center
10:00PM 27.0842 -80.3794 55° Northeast 191 220 19,000  Level Miami Center
10:01PM 27.1147 -80.3314 54° Northeast 191 220 19,000  Level Miami Center
10:02PM 27.1547 -80.3117 24° Northeast 176 203 19,000  Level Miami Center
10:03PM 27.1950 -80.2942 21° North 166 191 19,000  Level Miami Center
10:04PM 27.2225 -80.2692 39° Northeast 134 154 19,000  Level Miami Center
10:05PM 27.2544 -80.2467 32° Northeast 134 154 19,000  Level Miami Center
10:07PM 27.1983 -80.2271 North  Level Estimated
10:14PM 27.1817 -80.2213 North  Level Estimated
10:15PM 27.1817 -80.2213 North  Level Estimated
10:16PM 27.1817 -80.2213 North  Level Estimated
10:17PM 27.1817 -80.2213 North  Level Estimated
10:18PM 27.1817 -80.2213 North  Level Estimated
10:19PM 27.1817 -80.2213 North  Level Estimated
10:20PM 27.1817 -80.2213 North  Level Estimated
10:21PM 27.1817 -80.2213 North  Level Estimated
10:22PM 27.1817 -80.2213 North  Level Estimated
10:23PM 27.1817 -80.2213 North  Level Estimated
10:24PM 27.1817 -80.2213 North  Level Estimated
10:25PM 27.1817 -80.2213 North  Level Estimated
10:26PM 27.1817 -80.2213 North  Level Estimated
10:27PM 27.1817 -80.2213 North  Level Estimated
10:28PM 27.1817 -80.2213 North  Level Estimated
10:29PM 27.1817 -80.2213 North  Level Estimated
10:30PM 27.1817 -80.2213 North  Level Estimated
10:31PM 27.1817 -80.2213 North  Level Estimated
10:32PM 27.1817 -80.2213 North  Level Estimated